Highland-University Park's Hourly Summary for Wednesday, July 11, 2018
Hour Temp
(f)
RH
(%)
Solar Rad.
(MJ/m2)
Rainfall
(in)
Wind
(mph)
7/11/2018 12:00 AM 75 97 0 0 0
7/11/2018 1:00 AM 75 97 0 0 0
7/11/2018 2:00 AM 74 97 0 0 0
7/11/2018 3:00 AM 74 98 0 0 0
7/11/2018 4:00 AM 74 98 0 0 0.02
7/11/2018 5:00 AM 74 98 0 0 0.01
7/11/2018 6:00 AM 74 98 0 0 0
7/11/2018 7:00 AM 74 98 0.01 0 0.01
7/11/2018 8:00 AM 74 96 0.18 0 0.09
7/11/2018 9:00 AM 77 80 0.61 0 0.9
7/11/2018 10:00 AM 81 70 1.09 0 0.72
7/11/2018 11:00 AM 84 67 0.91 0 0.75
7/11/2018 12:00 PM 86 62 0.86 0 0.4
7/11/2018 1:00 PM 88 56 1.61 0 1.06
7/11/2018 2:00 PM 93 43 3.17 0 1.89
7/11/2018 3:00 PM 94 38 2.77 0 2.61
7/11/2018 4:00 PM 93 42 2.82 0 1.75
7/11/2018 5:00 PM 94 39 2.48 0 1.66
7/11/2018 6:00 PM 96 36 1.83 0 1.39
7/11/2018 7:00 PM 92 38 0.58 0 0.88
7/11/2018 8:00 PM 91 41 0.3 0 2.7
7/11/2018 9:00 PM 87 55 0.04 0 2.65
7/11/2018 10:00 PM 85 60 0 0 2.87
7/11/2018 11:00 PM 83 63 0 0 2.38
Data Summary 83 69 19.26 0.00 1.03